sensor_id;sensor_type;location;lat;lon;timestamp;P1;durP1;ratioP1;P2;durP2;ratioP2
48098;SDS011;33877;47.444;18.934;2022-10-31T00:00:52;58.08;;;29.80;;
48098;SDS011;33877;47.444;18.934;2022-10-31T00:03:30;60.72;;;30.52;;
48098;SDS011;33877;47.444;18.934;2022-10-31T00:05:59;61.60;;;32.60;;
48098;SDS011;33877;47.444;18.934;2022-10-31T00:08:43;60.80;;;28.02;;
48098;SDS011;33877;47.444;18.934;2022-10-31T00:11:13;60.07;;;30.03;;
48098;SDS011;33877;47.444;18.934;2022-10-31T00:13:46;54.42;;;27.80;;
48098;SDS011;33877;47.444;18.934;2022-10-31T00:16:21;50.05;;;27.05;;
48098;SDS011;33877;47.444;18.934;2022-10-31T00:19:19;44.90;;;25.92;;
48098;SDS011;33877;47.444;18.934;2022-10-31T00:21:48;42.85;;;22.15;;
48098;SDS011;33877;47.444;18.934;2022-10-31T00:24:23;37.72;;;23.05;;
48098;SDS011;33877;47.444;18.934;2022-10-31T00:26:53;37.33;;;21.48;;
48098;SDS011;33877;47.444;18.934;2022-10-31T00:29:26;39.88;;;22.15;;
48098;SDS011;33877;47.444;18.934;2022-10-31T00:31:56;38.03;;;22.55;;
48098;SDS011;33877;47.444;18.934;2022-10-31T00:34:53;37.03;;;21.17;;
48098;SDS011;33877;47.444;18.934;2022-10-31T00:37:38;37.08;;;21.62;;
48098;SDS011;33877;47.444;18.934;2022-10-31T00:40:18;36.13;;;19.75;;
48098;SDS011;33877;47.444;18.934;2022-10-31T00:43:07;32.40;;;20.27;;
48098;SDS011;33877;47.444;18.934;2022-10-31T00:45:44;35.72;;;20.50;;
48098;SDS011;33877;47.444;18.934;2022-10-31T00:48:35;33.95;;;20.45;;
48098;SDS011;33877;47.444;18.934;2022-10-31T00:51:30;28.58;;;17.37;;
48098;SDS011;33877;47.444;18.934;2022-10-31T00:54:21;28.87;;;17.02;;
48098;SDS011;33877;47.444;18.934;2022-10-31T00:57:18;27.25;;;17.08;;
48098;SDS011;33877;47.444;18.934;2022-10-31T00:59:49;28.73;;;16.77;;
48098;SDS011;33877;47.444;18.934;2022-10-31T01:02:34;28.58;;;17.00;;
48098;SDS011;33877;47.444;18.934;2022-10-31T01:05:23;29.02;;;17.45;;
48098;SDS011;33877;47.444;18.934;2022-10-31T01:08:06;30.35;;;17.83;;
48098;SDS011;33877;47.444;18.934;2022-10-31T01:10:36;29.37;;;19.27;;
48098;SDS011;33877;47.444;18.934;2022-10-31T01:13:13;29.98;;;16.92;;
48098;SDS011;33877;47.444;18.934;2022-10-31T01:16:03;31.83;;;17.95;;
48098;SDS011;33877;47.444;18.934;2022-10-31T01:18:37;29.37;;;17.87;;
48098;SDS011;33877;47.444;18.934;2022-10-31T01:21:28;30.17;;;19.10;;
48098;SDS011;33877;47.444;18.934;2022-10-31T01:24:14;31.37;;;19.45;;
48098;SDS011;33877;47.444;18.934;2022-10-31T01:26:46;29.12;;;18.17;;
48098;SDS011;33877;47.444;18.934;2022-10-31T01:29:17;27.55;;;17.73;;
48098;SDS011;33877;47.444;18.934;2022-10-31T01:31:46;28.52;;;17.08;;
48098;SDS011;33877;47.444;18.934;2022-10-31T01:34:16;26.70;;;17.10;;
48098;SDS011;33877;47.444;18.934;2022-10-31T01:36:51;26.52;;;16.40;;
48098;SDS011;33877;47.444;18.934;2022-10-31T01:39:27;29.98;;;16.00;;
48098;SDS011;33877;47.444;18.934;2022-10-31T01:42:18;29.67;;;17.60;;
48098;SDS011;33877;47.444;18.934;2022-10-31T01:44:57;29.45;;;17.15;;
48098;SDS011;33877;47.444;18.934;2022-10-31T01:48:13;28.50;;;16.48;;
48098;SDS011;33877;47.444;18.934;2022-10-31T01:50:48;28.77;;;18.60;;
48098;SDS011;33877;47.444;18.934;2022-10-31T01:53:23;33.58;;;19.48;;
48098;SDS011;33877;47.444;18.934;2022-10-31T01:55:55;30.77;;;18.60;;
48098;SDS011;33877;47.444;18.934;2022-10-31T01:58:41;32.92;;;18.77;;
48098;SDS011;33877;47.444;18.934;2022-10-31T02:01:09;34.03;;;19.42;;
48098;SDS011;33877;47.444;18.934;2022-10-31T02:03:43;33.38;;;19.35;;
48098;SDS011;33877;47.444;18.934;2022-10-31T02:09:34;35.45;;;19.30;;
48098;SDS011;33877;47.444;18.934;2022-10-31T02:12:04;34.88;;;20.02;;
48098;SDS011;33877;47.444;18.934;2022-10-31T02:15:05;34.03;;;18.65;;
48098;SDS011;33877;47.444;18.934;2022-10-31T02:17:43;32.42;;;18.40;;
48098;SDS011;33877;47.444;18.934;2022-10-31T02:20:21;36.38;;;18.55;;
48098;SDS011;33877;47.444;18.934;2022-10-31T02:32:39;32.35;;;18.02;;
48098;SDS011;33877;47.444;18.934;2022-10-31T02:49:27;24.45;;;14.10;;
48098;SDS011;33877;47.444;18.934;2022-10-31T03:12:13;22.75;;;12.50;;
48098;SDS011;33877;47.444;18.934;2022-10-31T03:15:19;22.92;;;12.60;;
48098;SDS011;33877;47.444;18.934;2022-10-31T03:21:27;25.12;;;13.70;;
48098;SDS011;33877;47.444;18.934;2022-10-31T03:24:00;23.80;;;13.13;;
48098;SDS011;33877;47.444;18.934;2022-10-31T03:26:31;27.92;;;13.98;;
48098;SDS011;33877;47.444;18.934;2022-10-31T03:29:03;22.95;;;12.85;;
48098;SDS011;33877;47.444;18.934;2022-10-31T03:31:44;22.92;;;12.65;;
48098;SDS011;33877;47.444;18.934;2022-10-31T03:34:16;23.62;;;14.75;;
48098;SDS011;33877;47.444;18.934;2022-10-31T03:37:09;20.80;;;12.50;;
48098;SDS011;33877;47.444;18.934;2022-10-31T03:39:41;21.50;;;13.00;;
48098;SDS011;33877;47.444;18.934;2022-10-31T03:42:32;24.00;;;13.88;;
48098;SDS011;33877;47.444;18.934;2022-10-31T03:45:15;21.92;;;13.50;;
48098;SDS011;33877;47.444;18.934;2022-10-31T03:47:48;20.55;;;11.90;;
48098;SDS011;33877;47.444;18.934;2022-10-31T03:50:17;21.08;;;11.95;;
48098;SDS011;33877;47.444;18.934;2022-10-31T03:55:42;19.37;;;12.00;;
48098;SDS011;33877;47.444;18.934;2022-10-31T03:58:22;18.95;;;11.75;;
48098;SDS011;33877;47.444;18.934;2022-10-31T04:00:56;22.37;;;13.38;;
48098;SDS011;33877;47.444;18.934;2022-10-31T04:03:36;20.02;;;11.93;;
48098;SDS011;33877;47.444;18.934;2022-10-31T04:06:15;18.75;;;12.02;;
48098;SDS011;33877;47.444;18.934;2022-10-31T04:09:02;20.25;;;11.73;;
48098;SDS011;33877;47.444;18.934;2022-10-31T04:12:11;20.00;;;12.48;;
48098;SDS011;33877;47.444;18.934;2022-10-31T04:14:53;18.95;;;10.80;;
48098;SDS011;33877;47.444;18.934;2022-10-31T04:17:36;17.73;;;10.85;;
48098;SDS011;33877;47.444;18.934;2022-10-31T04:20:08;18.42;;;10.75;;
48098;SDS011;33877;47.444;18.934;2022-10-31T04:22:41;18.15;;;11.02;;
48098;SDS011;33877;47.444;18.934;2022-10-31T04:25:13;16.40;;;10.40;;
48098;SDS011;33877;47.444;18.934;2022-10-31T04:27:45;18.15;;;10.82;;
48098;SDS011;33877;47.444;18.934;2022-10-31T04:30:18;17.65;;;10.90;;
48098;SDS011;33877;47.444;18.934;2022-10-31T04:32:50;18.37;;;10.77;;
48098;SDS011;33877;47.444;18.934;2022-10-31T04:35:35;17.23;;;10.32;;
48098;SDS011;33877;47.444;18.934;2022-10-31T04:38:31;20.33;;;11.12;;
48098;SDS011;33877;47.444;18.934;2022-10-31T04:41:05;19.60;;;12.07;;
48098;SDS011;33877;47.444;18.934;2022-10-31T04:43:35;20.20;;;12.15;;
48098;SDS011;33877;47.444;18.934;2022-10-31T04:46:05;25.17;;;13.25;;
48098;SDS011;33877;47.444;18.934;2022-10-31T04:48:33;20.55;;;13.18;;
48098;SDS011;33877;47.444;18.934;2022-10-31T04:51:03;20.83;;;12.88;;
48098;SDS011;33877;47.444;18.934;2022-10-31T04:53:45;20.25;;;11.35;;
48098;SDS011;33877;47.444;18.934;2022-10-31T04:56:18;21.17;;;12.40;;
48098;SDS011;33877;47.444;18.934;2022-10-31T04:58:51;22.80;;;12.45;;
48098;SDS011;33877;47.444;18.934;2022-10-31T05:01:43;22.85;;;13.25;;
48098;SDS011;33877;47.444;18.934;2022-10-31T05:04:36;20.58;;;11.90;;
48098;SDS011;33877;47.444;18.934;2022-10-31T05:07:05;23.75;;;12.52;;
48098;SDS011;33877;47.444;18.934;2022-10-31T05:09:36;24.90;;;13.27;;
48098;SDS011;33877;47.444;18.934;2022-10-31T05:12:05;22.30;;;12.75;;
48098;SDS011;33877;47.444;18.934;2022-10-31T05:14:51;22.27;;;13.13;;
48098;SDS011;33877;47.444;18.934;2022-10-31T05:17:26;24.67;;;13.07;;
48098;SDS011;33877;47.444;18.934;2022-10-31T05:20:02;23.67;;;13.00;;
48098;SDS011;33877;47.444;18.934;2022-10-31T05:22:34;26.70;;;14.87;;
48098;SDS011;33877;47.444;18.934;2022-10-31T06:37:40;32.50;;;17.45;;
48098;SDS011;33877;47.444;18.934;2022-10-31T07:21:31;36.00;;;18.30;;
48098;SDS011;33877;47.444;18.934;2022-10-31T07:30:50;38.92;;;18.40;;
48098;SDS011;33877;47.444;18.934;2022-10-31T07:34:47;34.90;;;18.87;;
48098;SDS011;33877;47.444;18.934;2022-10-31T07:39:07;39.78;;;18.87;;
48098;SDS011;33877;47.444;18.934;2022-10-31T07:51:23;37.78;;;17.00;;
48098;SDS011;33877;47.444;18.934;2022-10-31T07:59:40;38.58;;;18.15;;
48098;SDS011;33877;47.444;18.934;2022-10-31T08:10:59;32.28;;;17.48;;
48098;SDS011;33877;47.444;18.934;2022-10-31T08:14:13;34.20;;;17.60;;
48098;SDS011;33877;47.444;18.934;2022-10-31T08:18:03;36.90;;;18.35;;
48098;SDS011;33877;47.444;18.934;2022-10-31T08:37:00;33.13;;;16.52;;
48098;SDS011;33877;47.444;18.934;2022-10-31T08:45:41;31.95;;;16.62;;
48098;SDS011;33877;47.444;18.934;2022-10-31T09:11:22;39.13;;;18.30;;
48098;SDS011;33877;47.444;18.934;2022-10-31T09:15:35;36.90;;;17.70;;
48098;SDS011;33877;47.444;18.934;2022-10-31T09:19:30;39.42;;;18.37;;
48098;SDS011;33877;47.444;18.934;2022-10-31T09:27:02;38.45;;;19.27;;
48098;SDS011;33877;47.444;18.934;2022-10-31T09:31:01;32.13;;;17.42;;
48098;SDS011;33877;47.444;18.934;2022-10-31T09:34:47;33.33;;;16.65;;
48098;SDS011;33877;47.444;18.934;2022-10-31T09:38:19;36.45;;;17.23;;
48098;SDS011;33877;47.444;18.934;2022-10-31T09:54:58;38.72;;;18.80;;
48098;SDS011;33877;47.444;18.934;2022-10-31T10:14:14;30.83;;;16.52;;
48098;SDS011;33877;47.444;18.934;2022-10-31T10:44:30;27.42;;;15.85;;
48098;SDS011;33877;47.444;18.934;2022-10-31T10:56:38;26.83;;;14.60;;
48098;SDS011;33877;47.444;18.934;2022-10-31T11:08:52;31.25;;;18.80;;
48098;SDS011;33877;47.444;18.934;2022-10-31T11:20:36;24.95;;;14.07;;
48098;SDS011;33877;47.444;18.934;2022-10-31T11:37:32;26.67;;;14.73;;
48098;SDS011;33877;47.444;18.934;2022-10-31T11:46:15;22.37;;;13.80;;
48098;SDS011;33877;47.444;18.934;2022-10-31T11:49:39;24.95;;;13.27;;
48098;SDS011;33877;47.444;18.934;2022-10-31T11:57:57;20.70;;;11.88;;
48098;SDS011;33877;47.444;18.934;2022-10-31T12:05:58;21.37;;;13.32;;
48098;SDS011;33877;47.444;18.934;2022-10-31T12:38:44;20.73;;;12.25;;
48098;SDS011;33877;47.444;18.934;2022-10-31T13:08:57;20.62;;;12.20;;
48098;SDS011;33877;47.444;18.934;2022-10-31T13:12:52;21.10;;;13.60;;
48098;SDS011;33877;47.444;18.934;2022-10-31T13:16:39;21.40;;;13.57;;
48098;SDS011;33877;47.444;18.934;2022-10-31T13:24:19;24.58;;;14.15;;
48098;SDS011;33877;47.444;18.934;2022-10-31T13:28:12;24.25;;;13.35;;
48098;SDS011;33877;47.444;18.934;2022-10-31T13:31:42;20.52;;;12.48;;
48098;SDS011;33877;47.444;18.934;2022-10-31T13:47:31;22.33;;;13.75;;
48098;SDS011;33877;47.444;18.934;2022-10-31T13:51:23;23.38;;;13.43;;
48098;SDS011;33877;47.444;18.934;2022-10-31T14:14:15;29.12;;;15.50;;
48098;SDS011;33877;47.444;18.934;2022-10-31T14:21:55;23.73;;;15.07;;
48098;SDS011;33877;47.444;18.934;2022-10-31T14:34:35;27.58;;;16.12;;
48098;SDS011;33877;47.444;18.934;2022-10-31T14:53:46;26.65;;;14.90;;
48098;SDS011;33877;47.444;18.934;2022-10-31T15:01:21;27.08;;;15.40;;
48098;SDS011;33877;47.444;18.934;2022-10-31T15:05:47;26.25;;;14.90;;
48098;SDS011;33877;47.444;18.934;2022-10-31T15:09:30;28.08;;;16.02;;
48098;SDS011;33877;47.444;18.934;2022-10-31T15:17:08;26.35;;;14.65;;
48098;SDS011;33877;47.444;18.934;2022-10-31T15:21:20;27.15;;;15.65;;
48098;SDS011;33877;47.444;18.934;2022-10-31T15:25:30;24.45;;;15.57;;
48098;SDS011;33877;47.444;18.934;2022-10-31T15:29:34;26.50;;;15.07;;
48098;SDS011;33877;47.444;18.934;2022-10-31T15:41:35;24.33;;;14.98;;
48098;SDS011;33877;47.444;18.934;2022-10-31T15:49:01;24.58;;;14.82;;
48098;SDS011;33877;47.444;18.934;2022-10-31T15:53:13;27.50;;;15.85;;
48098;SDS011;33877;47.444;18.934;2022-10-31T16:07:55;29.00;;;15.95;;
48098;SDS011;33877;47.444;18.934;2022-10-31T16:11:53;29.77;;;16.27;;
48098;SDS011;33877;47.444;18.934;2022-10-31T16:16:15;27.20;;;16.20;;
48098;SDS011;33877;47.444;18.934;2022-10-31T16:20:29;30.52;;;15.82;;
48098;SDS011;33877;47.444;18.934;2022-10-31T16:23:53;27.70;;;17.50;;
48098;SDS011;33877;47.444;18.934;2022-10-31T16:27:20;27.67;;;17.80;;
48098;SDS011;33877;47.444;18.934;2022-10-31T16:45:34;27.95;;;16.12;;
48098;SDS011;33877;47.444;18.934;2022-10-31T16:53:01;26.20;;;17.15;;
48098;SDS011;33877;47.444;18.934;2022-10-31T16:56:21;30.92;;;19.08;;
48098;SDS011;33877;47.444;18.934;2022-10-31T17:00:12;28.75;;;18.10;;
48098;SDS011;33877;47.444;18.934;2022-10-31T17:03:41;30.25;;;19.17;;
48098;SDS011;33877;47.444;18.934;2022-10-31T17:10:42;32.45;;;17.95;;
48098;SDS011;33877;47.444;18.934;2022-10-31T17:14:14;32.90;;;20.20;;
48098;SDS011;33877;47.444;18.934;2022-10-31T17:17:43;32.53;;;20.08;;
48098;SDS011;33877;47.444;18.934;2022-10-31T17:21:52;36.78;;;20.65;;
48098;SDS011;33877;47.444;18.934;2022-10-31T17:25:00;34.10;;;19.60;;
48098;SDS011;33877;47.444;18.934;2022-10-31T17:28:19;32.20;;;17.50;;
48098;SDS011;33877;47.444;18.934;2022-10-31T17:35:07;32.00;;;18.15;;
48098;SDS011;33877;47.444;18.934;2022-10-31T17:39:03;31.40;;;18.03;;
48098;SDS011;33877;47.444;18.934;2022-10-31T17:45:40;31.67;;;18.67;;
48098;SDS011;33877;47.444;18.934;2022-10-31T17:49:20;30.20;;;18.65;;
48098;SDS011;33877;47.444;18.934;2022-10-31T17:52:48;40.08;;;19.75;;
48098;SDS011;33877;47.444;18.934;2022-10-31T18:00:20;30.48;;;17.30;;
48098;SDS011;33877;47.444;18.934;2022-10-31T18:03:52;36.22;;;17.62;;
48098;SDS011;33877;47.444;18.934;2022-10-31T18:07:00;35.75;;;19.87;;
48098;SDS011;33877;47.444;18.934;2022-10-31T18:10:26;37.95;;;20.83;;
48098;SDS011;33877;47.444;18.934;2022-10-31T18:14:04;36.50;;;20.17;;
48098;SDS011;33877;47.444;18.934;2022-10-31T18:17:58;35.83;;;18.90;;
48098;SDS011;33877;47.444;18.934;2022-10-31T18:21:39;34.58;;;19.33;;
48098;SDS011;33877;47.444;18.934;2022-10-31T18:24:55;37.72;;;20.23;;
48098;SDS011;33877;47.444;18.934;2022-10-31T18:29:05;41.95;;;22.42;;
48098;SDS011;33877;47.444;18.934;2022-10-31T18:32:36;43.83;;;21.92;;
48098;SDS011;33877;47.444;18.934;2022-10-31T18:36:44;41.17;;;20.73;;
48098;SDS011;33877;47.444;18.934;2022-10-31T18:40:25;43.83;;;22.23;;
48098;SDS011;33877;47.444;18.934;2022-10-31T18:43:55;44.28;;;21.10;;
48098;SDS011;33877;47.444;18.934;2022-10-31T18:46:53;36.58;;;19.17;;
48098;SDS011;33877;47.444;18.934;2022-10-31T18:50:16;36.78;;;18.85;;
48098;SDS011;33877;47.444;18.934;2022-10-31T18:53:51;40.65;;;19.58;;
48098;SDS011;33877;47.444;18.934;2022-10-31T18:57:29;41.50;;;21.08;;
48098;SDS011;33877;47.444;18.934;2022-10-31T19:05:02;35.22;;;17.80;;
48098;SDS011;33877;47.444;18.934;2022-10-31T19:08:10;35.90;;;17.52;;
48098;SDS011;33877;47.444;18.934;2022-10-31T19:11:31;33.30;;;16.17;;
48098;SDS011;33877;47.444;18.934;2022-10-31T19:19:14;33.53;;;15.48;;
48098;SDS011;33877;47.444;18.934;2022-10-31T19:22:32;31.27;;;16.42;;
48098;SDS011;33877;47.444;18.934;2022-10-31T19:25:48;33.28;;;17.33;;
48098;SDS011;33877;47.444;18.934;2022-10-31T19:29:30;33.75;;;17.67;;
48098;SDS011;33877;47.444;18.934;2022-10-31T19:33:18;34.30;;;17.90;;
48098;SDS011;33877;47.444;18.934;2022-10-31T19:36:39;33.55;;;17.52;;
48098;SDS011;33877;47.444;18.934;2022-10-31T19:44:10;33.30;;;16.75;;
48098;SDS011;33877;47.444;18.934;2022-10-31T19:47:33;33.38;;;17.67;;
48098;SDS011;33877;47.444;18.934;2022-10-31T19:51:22;31.17;;;16.33;;
48098;SDS011;33877;47.444;18.934;2022-10-31T19:55:02;25.88;;;14.57;;
48098;SDS011;33877;47.444;18.934;2022-10-31T20:05:38;27.95;;;14.87;;
48098;SDS011;33877;47.444;18.934;2022-10-31T20:09:30;25.67;;;13.77;;
48098;SDS011;33877;47.444;18.934;2022-10-31T20:12:39;26.27;;;14.02;;
48098;SDS011;33877;47.444;18.934;2022-10-31T20:15:34;25.42;;;13.05;;
48098;SDS011;33877;47.444;18.934;2022-10-31T20:18:47;27.90;;;13.40;;
48098;SDS011;33877;47.444;18.934;2022-10-31T20:21:53;23.80;;;14.25;;
48098;SDS011;33877;47.444;18.934;2022-10-31T20:25:37;26.27;;;14.13;;
48098;SDS011;33877;47.444;18.934;2022-10-31T20:28:48;29.67;;;14.60;;
48098;SDS011;33877;47.444;18.934;2022-10-31T20:32:14;28.15;;;13.62;;
48098;SDS011;33877;47.444;18.934;2022-10-31T20:35:46;28.45;;;15.25;;
48098;SDS011;33877;47.444;18.934;2022-10-31T20:38:43;27.55;;;15.60;;
48098;SDS011;33877;47.444;18.934;2022-10-31T20:41:55;30.85;;;15.52;;
48098;SDS011;33877;47.444;18.934;2022-10-31T20:44:55;30.12;;;15.07;;
48098;SDS011;33877;47.444;18.934;2022-10-31T20:48:00;31.95;;;15.85;;
48098;SDS011;33877;47.444;18.934;2022-10-31T20:54:10;32.17;;;15.90;;
48098;SDS011;33877;47.444;18.934;2022-10-31T20:57:23;39.70;;;17.12;;
48098;SDS011;33877;47.444;18.934;2022-10-31T21:00:58;40.83;;;18.45;;
48098;SDS011;33877;47.444;18.934;2022-10-31T21:04:21;38.08;;;18.12;;
48098;SDS011;33877;47.444;18.934;2022-10-31T21:07:29;35.75;;;18.12;;
48098;SDS011;33877;47.444;18.934;2022-10-31T21:10:31;37.45;;;17.70;;
48098;SDS011;33877;47.444;18.934;2022-10-31T21:13:46;34.40;;;17.92;;
48098;SDS011;33877;47.444;18.934;2022-10-31T21:16:40;36.17;;;17.27;;
48098;SDS011;33877;47.444;18.934;2022-10-31T21:19:40;40.28;;;17.58;;
48098;SDS011;33877;47.444;18.934;2022-10-31T21:22:44;35.13;;;17.55;;
48098;SDS011;33877;47.444;18.934;2022-10-31T21:25:52;40.42;;;18.00;;
48098;SDS011;33877;47.444;18.934;2022-10-31T21:29:20;37.95;;;17.00;;
48098;SDS011;33877;47.444;18.934;2022-10-31T21:32:42;36.75;;;17.73;;
48098;SDS011;33877;47.444;18.934;2022-10-31T21:35:59;38.67;;;17.95;;
48098;SDS011;33877;47.444;18.934;2022-10-31T21:39:30;40.53;;;18.73;;
48098;SDS011;33877;47.444;18.934;2022-10-31T21:42:32;37.60;;;19.62;;
48098;SDS011;33877;47.444;18.934;2022-10-31T21:45:38;46.33;;;21.10;;
48098;SDS011;33877;47.444;18.934;2022-10-31T21:48:51;44.97;;;22.23;;
48098;SDS011;33877;47.444;18.934;2022-10-31T21:52:02;43.58;;;20.02;;
48098;SDS011;33877;47.444;18.934;2022-10-31T21:55:26;39.20;;;19.55;;
48098;SDS011;33877;47.444;18.934;2022-10-31T22:02:48;38.95;;;19.80;;
48098;SDS011;33877;47.444;18.934;2022-10-31T22:06:00;46.33;;;19.58;;
48098;SDS011;33877;47.444;18.934;2022-10-31T22:09:27;43.47;;;20.52;;
48098;SDS011;33877;47.444;18.934;2022-10-31T22:12:39;43.60;;;21.42;;
48098;SDS011;33877;47.444;18.934;2022-10-31T22:16:05;41.42;;;20.52;;
48098;SDS011;33877;47.444;18.934;2022-10-31T22:19:14;42.88;;;20.35;;
48098;SDS011;33877;47.444;18.934;2022-10-31T22:22:26;41.67;;;20.37;;
48098;SDS011;33877;47.444;18.934;2022-10-31T22:25:27;38.00;;;18.87;;
48098;SDS011;33877;47.444;18.934;2022-10-31T22:28:37;38.45;;;17.80;;
48098;SDS011;33877;47.444;18.934;2022-10-31T22:32:05;36.13;;;18.30;;
48098;SDS011;33877;47.444;18.934;2022-10-31T22:35:32;35.03;;;17.37;;
48098;SDS011;33877;47.444;18.934;2022-10-31T22:38:56;34.70;;;16.02;;
48098;SDS011;33877;47.444;18.934;2022-10-31T22:42:23;31.83;;;16.20;;
48098;SDS011;33877;47.444;18.934;2022-10-31T22:45:33;31.42;;;16.20;;
48098;SDS011;33877;47.444;18.934;2022-10-31T22:48:49;36.30;;;17.45;;
48098;SDS011;33877;47.444;18.934;2022-10-31T22:52:06;33.30;;;15.35;;
48098;SDS011;33877;47.444;18.934;2022-10-31T22:55:33;35.38;;;17.25;;
48098;SDS011;33877;47.444;18.934;2022-10-31T22:58:52;33.95;;;16.08;;
48098;SDS011;33877;47.444;18.934;2022-10-31T23:02:02;39.03;;;17.02;;
48098;SDS011;33877;47.444;18.934;2022-10-31T23:05:29;36.97;;;16.50;;
48098;SDS011;33877;47.444;18.934;2022-10-31T23:09:19;33.70;;;15.85;;
48098;SDS011;33877;47.444;18.934;2022-10-31T23:12:28;37.25;;;15.65;;
48098;SDS011;33877;47.444;18.934;2022-10-31T23:16:03;31.00;;;14.30;;
48098;SDS011;33877;47.444;18.934;2022-10-31T23:19:33;27.40;;;14.38;;
48098;SDS011;33877;47.444;18.934;2022-10-31T23:23:15;30.62;;;14.60;;
48098;SDS011;33877;47.444;18.934;2022-10-31T23:26:39;33.67;;;14.45;;
48098;SDS011;33877;47.444;18.934;2022-10-31T23:29:59;31.48;;;14.25;;
48098;SDS011;33877;47.444;18.934;2022-10-31T23:32:58;26.48;;;13.30;;
48098;SDS011;33877;47.444;18.934;2022-10-31T23:35:59;28.73;;;14.05;;
48098;SDS011;33877;47.444;18.934;2022-10-31T23:39:13;27.02;;;12.77;;
48098;SDS011;33877;47.444;18.934;2022-10-31T23:45:47;29.10;;;13.20;;
48098;SDS011;33877;47.444;18.934;2022-10-31T23:49:08;24.87;;;12.75;;
48098;SDS011;33877;47.444;18.934;2022-10-31T23:52:10;25.88;;;13.38;;
48098;SDS011;33877;47.444;18.934;2022-10-31T23:55:20;28.10;;;13.07;;
